createdAt,value
2022-10-31T00:00:03.614Z,28.13
2022-10-31T00:02:31.226Z,30.30
2022-10-31T00:04:58.779Z,33.83
2022-10-31T00:07:27.684Z,31.23
2022-10-31T00:09:55.236Z,36.87
2022-10-31T00:12:22.808Z,26.93
2022-10-31T00:14:50.360Z,30.03
2022-10-31T00:17:17.935Z,34.63
2022-10-31T00:19:45.511Z,31.70
2022-10-31T00:22:13.059Z,32.47
2022-10-31T00:24:41.963Z,30.47
2022-10-31T00:27:09.685Z,31.07
2022-10-31T00:29:37.254Z,31.93
2022-10-31T00:32:05.023Z,35.37
2022-10-31T00:34:32.580Z,32.50
2022-10-31T00:37:00.129Z,28.83
2022-10-31T00:39:27.695Z,32.20
2022-10-31T00:41:56.588Z,30.20
2022-10-31T00:44:24.237Z,29.20
2022-10-31T00:46:51.831Z,24.97
2022-10-31T00:49:19.413Z,33.27
2022-10-31T00:51:47.008Z,33.47
2022-10-31T00:54:14.567Z,32.97
2022-10-31T00:56:42.111Z,30.97
2022-10-31T00:59:11.058Z,34.27
2022-10-31T01:01:38.719Z,36.80
2022-10-31T01:04:06.725Z,35.10
2022-10-31T01:06:34.392Z,34.53
2022-10-31T01:09:01.954Z,35.60
2022-10-31T01:11:29.579Z,31.30
2022-10-31T01:13:57.144Z,36.60
2022-10-31T01:16:27.888Z,34.77
2022-10-31T01:18:55.436Z,36.03
2022-10-31T01:21:25.140Z,36.10
2022-10-31T01:23:54.673Z,38.67
2022-10-31T01:26:24.016Z,38.67
2022-10-31T01:28:53.896Z,36.63
2022-10-31T01:31:23.581Z,38.63
2022-10-31T01:33:53.150Z,37.70
2022-10-31T01:36:23.689Z,40.30
2022-10-31T01:38:52.160Z,46.57
2022-10-31T01:41:21.922Z,41.17
2022-10-31T01:43:53.189Z,45.80
2022-10-31T01:46:25.955Z,42.10
2022-10-31T01:48:56.289Z,42.43
2022-10-31T01:51:28.154Z,45.60
2022-10-31T01:54:00.085Z,43.60
2022-10-31T01:56:28.144Z,51.83
2022-10-31T01:58:58.349Z,45.50
2022-10-31T02:01:26.303Z,49.23
2022-10-31T02:03:56.855Z,52.23
2022-10-31T02:06:34.510Z,42.43
2022-10-31T02:09:04.363Z,42.00
2022-10-31T02:11:33.245Z,46.63
2022-10-31T02:14:03.249Z,47.23
2022-10-31T02:16:30.950Z,44.90
2022-10-31T02:19:00.072Z,47.50
2022-10-31T02:21:35.861Z,45.77
2022-10-31T02:24:50.860Z,47.23
2022-10-31T02:27:35.247Z,43.30
2022-10-31T02:30:08.036Z,44.93
2022-10-31T02:32:53.830Z,49.43
2022-10-31T02:35:32.137Z,45.53
2022-10-31T02:38:04.889Z,44.33
2022-10-31T02:40:37.707Z,43.17
2022-10-31T02:43:11.980Z,46.00
2022-10-31T02:45:46.744Z,50.30
2022-10-31T02:48:20.309Z,43.63
2022-10-31T02:50:52.913Z,46.83
2022-10-31T02:53:20.679Z,44.67
2022-10-31T02:55:57.010Z,46.93
2022-10-31T02:58:27.930Z,44.23
2022-10-31T03:01:13.090Z,43.50
2022-10-31T03:03:54.616Z,45.07
2022-10-31T03:06:31.389Z,41.27
2022-10-31T03:09:11.763Z,46.27
2022-10-31T03:11:48.248Z,43.20
2022-10-31T03:14:23.564Z,42.33
2022-10-31T03:16:54.092Z,44.40
2022-10-31T03:19:27.891Z,46.57
2022-10-31T03:22:00.132Z,44.37
2022-10-31T03:24:32.544Z,39.67
2022-10-31T03:27:02.549Z,45.43
2022-10-31T03:29:35.659Z,43.07
2022-10-31T03:32:06.839Z,51.17
2022-10-31T03:34:37.565Z,45.37
2022-10-31T03:37:09.464Z,51.23
2022-10-31T03:39:39.140Z,51.53
2022-10-31T03:42:09.717Z,48.33
2022-10-31T03:44:40.451Z,48.17
2022-10-31T03:47:08.043Z,47.77
2022-10-31T03:49:37.464Z,47.57
2022-10-31T03:52:15.647Z,48.90
2022-10-31T03:54:46.075Z,57.17
2022-10-31T03:57:21.405Z,51.40
2022-10-31T03:59:53.565Z,57.43
2022-10-31T04:02:27.205Z,55.80
2022-10-31T04:04:56.355Z,56.80
2022-10-31T04:07:27.562Z,50.33
2022-10-31T04:09:55.886Z,53.67
2022-10-31T04:12:26.663Z,54.97
2022-10-31T04:14:56.792Z,57.07
2022-10-31T04:17:29.854Z,48.23
2022-10-31T04:20:01.090Z,49.17
2022-10-31T04:22:28.687Z,59.83
2022-10-31T04:24:56.238Z,55.57
2022-10-31T04:27:23.827Z,65.90
2022-10-31T04:29:51.392Z,59.80
2022-10-31T04:32:18.962Z,57.50
2022-10-31T04:34:46.553Z,69.93
2022-10-31T04:37:15.451Z,57.83
2022-10-31T04:39:43.130Z,57.87
2022-10-31T04:42:10.710Z,58.27
2022-10-31T04:44:38.346Z,66.47
2022-10-31T04:47:06.300Z,55.10
2022-10-31T04:49:33.924Z,62.93
2022-10-31T04:52:01.457Z,54.33
2022-10-31T04:54:30.389Z,49.37
2022-10-31T04:56:57.963Z,56.37
2022-10-31T04:59:25.578Z,59.03
2022-10-31T05:01:53.250Z,56.30
2022-10-31T05:04:20.870Z,61.23
2022-10-31T05:06:48.458Z,53.03
2022-10-31T05:09:16.042Z,50.63
2022-10-31T05:11:44.987Z,49.13
2022-10-31T05:14:12.533Z,53.50
2022-10-31T05:16:40.086Z,50.13
2022-10-31T05:19:07.703Z,48.00
2022-10-31T05:21:35.412Z,50.07
2022-10-31T05:24:02.994Z,49.47
2022-10-31T05:26:30.568Z,48.57
2022-10-31T05:28:59.624Z,44.67
2022-10-31T05:31:27.191Z,58.87
2022-10-31T05:33:54.737Z,48.47
2022-10-31T05:36:22.280Z,49.73
2022-10-31T05:38:49.816Z,49.67
2022-10-31T05:41:17.356Z,48.03
2022-10-31T05:43:44.951Z,49.83
2022-10-31T05:46:13.865Z,50.80
2022-10-31T05:48:41.425Z,52.30
2022-10-31T05:51:08.994Z,39.60
2022-10-31T05:53:36.539Z,50.90
2022-10-31T05:56:04.112Z,48.57
2022-10-31T05:58:31.668Z,45.90
2022-10-31T06:00:59.215Z,47.93
2022-10-31T06:03:28.115Z,42.63
2022-10-31T06:05:55.677Z,48.07
2022-10-31T06:08:23.257Z,44.97
2022-10-31T06:10:50.851Z,40.13
2022-10-31T06:13:18.401Z,40.33
2022-10-31T06:15:46.001Z,39.10
2022-10-31T06:18:13.566Z,37.03
2022-10-31T06:20:42.502Z,42.60
2022-10-31T06:23:10.061Z,43.40
2022-10-31T06:25:37.797Z,41.43
2022-10-31T06:28:05.647Z,44.80
2022-10-31T06:30:33.202Z,47.87
2022-10-31T06:33:04.592Z,52.00
2022-10-31T06:35:32.333Z,43.30
2022-10-31T06:38:01.675Z,42.63
2022-10-31T06:40:29.432Z,40.50
2022-10-31T06:43:00.601Z,47.67
2022-10-31T06:45:28.833Z,41.73
2022-10-31T06:48:16.651Z,45.33
2022-10-31T06:50:44.537Z,45.77
2022-10-31T06:53:15.022Z,42.40
2022-10-31T06:55:43.651Z,42.37
2022-10-31T06:58:12.420Z,42.33
2022-10-31T07:00:40.033Z,41.60
2022-10-31T07:03:09.448Z,39.27
2022-10-31T07:05:37.033Z,71.60
2022-10-31T07:08:07.404Z,40.77
2022-10-31T07:10:40.413Z,44.20
2022-10-31T07:13:12.795Z,40.97
2022-10-31T07:15:41.779Z,46.97
2022-10-31T07:18:11.603Z,39.07
2022-10-31T07:20:39.749Z,41.40
2022-10-31T07:23:07.328Z,42.57
2022-10-31T07:25:36.265Z,40.07
2022-10-31T07:28:04.126Z,37.57
2022-10-31T07:30:31.857Z,33.33
2022-10-31T07:32:59.627Z,35.53
2022-10-31T07:35:29.572Z,36.60
2022-10-31T07:37:58.247Z,32.67
2022-10-31T07:40:26.654Z,33.77
2022-10-31T07:42:55.705Z,32.93
2022-10-31T07:45:23.394Z,35.60
2022-10-31T07:47:52.425Z,30.17
2022-10-31T07:50:21.569Z,31.27
2022-10-31T07:52:49.313Z,31.47
2022-10-31T07:55:17.106Z,32.60
2022-10-31T07:57:44.668Z,34.47
2022-10-31T08:00:14.557Z,35.10
2022-10-31T08:02:42.197Z,37.30
2022-10-31T08:05:10.082Z,33.80
2022-10-31T08:07:39.225Z,31.13
2022-10-31T08:10:07.535Z,36.77
2022-10-31T08:12:35.089Z,26.93
2022-10-31T08:15:02.904Z,28.67
2022-10-31T08:17:31.817Z,34.07
2022-10-31T08:19:59.386Z,30.00
2022-10-31T08:22:26.975Z,27.10
2022-10-31T08:24:54.661Z,30.73
2022-10-31T08:27:22.269Z,27.73
2022-10-31T08:29:49.925Z,33.13
2022-10-31T08:32:17.553Z,32.97
2022-10-31T08:34:46.444Z,37.47
2022-10-31T08:37:13.998Z,36.00
2022-10-31T08:39:41.572Z,37.60
2022-10-31T08:42:09.214Z,33.43
2022-10-31T08:44:36.767Z,37.13
2022-10-31T08:47:04.356Z,37.17
2022-10-31T08:49:32.976Z,33.40
2022-10-31T08:52:01.968Z,35.03
2022-10-31T08:54:29.704Z,39.67
2022-10-31T08:56:57.676Z,43.87
2022-10-31T08:59:25.288Z,38.73
2022-10-31T09:01:52.984Z,45.67
2022-10-31T09:04:20.617Z,39.93
2022-10-31T09:07:19.674Z,38.57
2022-10-31T09:09:37.079Z,41.93
2022-10-31T09:12:05.043Z,43.20
2022-10-31T09:14:32.602Z,45.33
2022-10-31T09:17:00.154Z,39.90
2022-10-31T09:19:27.720Z,47.97
2022-10-31T09:21:55.829Z,43.77
2022-10-31T09:24:23.527Z,45.10
2022-10-31T09:26:52.439Z,41.40
2022-10-31T09:29:20.006Z,34.17
2022-10-31T09:31:47.542Z,40.60
2022-10-31T09:34:15.119Z,47.60
2022-10-31T09:36:43.992Z,41.97
2022-10-31T09:39:11.618Z,35.47
2022-10-31T09:42:04.043Z,41.60
2022-10-31T09:44:41.507Z,40.97
2022-10-31T09:47:19.359Z,34.67
2022-10-31T09:50:01.701Z,35.93
2022-10-31T09:52:33.093Z,32.70
2022-10-31T09:55:06.783Z,39.00
2022-10-31T09:57:38.222Z,27.87
2022-10-31T10:00:07.349Z,32.03
2022-10-31T10:02:39.482Z,35.37
2022-10-31T10:05:11.779Z,33.30
2022-10-31T10:07:46.289Z,33.23
2022-10-31T10:10:19.985Z,35.13
2022-10-31T10:13:18.794Z,34.00
2022-10-31T10:16:08.722Z,33.73
2022-10-31T10:18:48.926Z,27.80
2022-10-31T10:21:27.571Z,37.20
2022-10-31T10:24:05.825Z,23.87
2022-10-31T10:26:38.824Z,26.47
2022-10-31T10:29:26.058Z,31.67
2022-10-31T10:31:55.581Z,25.87
2022-10-31T10:34:26.509Z,29.47
2022-10-31T10:36:58.135Z,29.43
2022-10-31T10:39:31.549Z,29.73
2022-10-31T10:42:19.040Z,33.17
2022-10-31T10:45:07.494Z,31.97
2022-10-31T10:47:43.334Z,28.73
2022-10-31T10:50:17.818Z,34.07
2022-10-31T10:52:53.931Z,34.83
2022-10-31T10:55:34.941Z,33.10
2022-10-31T10:58:04.531Z,34.00
2022-10-31T11:00:37.892Z,30.60
2022-10-31T11:03:06.663Z,35.30
2022-10-31T11:05:38.939Z,33.40
2022-10-31T11:08:08.784Z,35.07
2022-10-31T11:10:37.439Z,32.03
2022-10-31T11:13:19.537Z,30.00
2022-10-31T11:15:57.516Z,30.83
2022-10-31T11:18:28.028Z,33.63
2022-10-31T11:21:06.378Z,32.63
2022-10-31T11:23:34.949Z,34.27
2022-10-31T11:26:04.506Z,29.70
2022-10-31T11:28:35.685Z,28.83
2022-10-31T11:31:13.918Z,27.60
2022-10-31T11:33:57.909Z,29.10
2022-10-31T11:36:27.979Z,28.33
2022-10-31T11:38:56.909Z,28.13
2022-10-31T11:41:30.109Z,23.53
2022-10-31T11:44:00.035Z,22.30
2022-10-31T11:46:39.031Z,25.73
2022-10-31T11:49:13.145Z,26.03
2022-10-31T11:51:42.039Z,24.33
2022-10-31T11:54:23.009Z,22.67
2022-10-31T11:56:50.753Z,24.42
2022-10-31T11:59:25.480Z,17.83
2022-10-31T12:01:55.993Z,24.17
2022-10-31T12:04:34.655Z,19.15
2022-10-31T12:07:02.492Z,21.00
2022-10-31T12:09:32.068Z,25.13
2022-10-31T12:12:16.291Z,23.70
2022-10-31T12:14:56.264Z,26.15
2022-10-31T12:17:32.225Z,24.50
2022-10-31T12:20:09.426Z,27.63
2022-10-31T12:22:47.127Z,27.15
2022-10-31T12:25:28.529Z,26.85
2022-10-31T12:28:12.321Z,25.63
2022-10-31T12:30:52.912Z,24.17
2022-10-31T12:33:36.471Z,21.93
2022-10-31T12:36:17.838Z,24.73
2022-10-31T12:38:59.611Z,22.63
2022-10-31T12:41:41.436Z,21.30
2022-10-31T12:44:16.461Z,22.67
2022-10-31T12:47:03.118Z,19.17
2022-10-31T12:49:45.603Z,21.25
2022-10-31T12:52:27.485Z,22.43
2022-10-31T12:55:10.329Z,23.92
2022-10-31T12:57:43.136Z,24.23
2022-10-31T13:00:16.859Z,27.73
2022-10-31T13:02:50.882Z,22.63
2022-10-31T13:05:24.501Z,24.57
2022-10-31T13:07:58.370Z,29.37
2022-10-31T13:10:31.659Z,26.63
2022-10-31T13:13:07.400Z,25.97
2022-10-31T13:15:48.218Z,24.50
2022-10-31T13:18:29.225Z,28.73
2022-10-31T13:21:01.173Z,26.73
2022-10-31T13:26:25.825Z,26.30
2022-10-31T13:28:59.490Z,28.73
2022-10-31T13:31:27.467Z,31.70
2022-10-31T13:33:58.829Z,25.40
2022-10-31T13:36:35.799Z,26.17
2022-10-31T13:39:16.288Z,26.53
2022-10-31T13:41:50.084Z,24.63
2022-10-31T13:44:22.865Z,26.70
2022-10-31T13:46:50.487Z,19.63
2022-10-31T13:49:41.871Z,17.47
2022-10-31T13:52:26.222Z,18.70
2022-10-31T13:54:57.589Z,14.98
2022-10-31T13:57:34.448Z,14.90
2022-10-31T14:00:05.929Z,13.03
2022-10-31T14:02:36.491Z,12.63
2022-10-31T14:05:11.168Z,13.65
2022-10-31T14:07:47.012Z,12.90
2022-10-31T14:10:26.140Z,14.18
2022-10-31T14:12:54.716Z,13.75
2022-10-31T14:15:24.828Z,14.93
2022-10-31T14:17:57.456Z,17.77
2022-10-31T14:20:35.967Z,18.48
2022-10-31T14:23:14.756Z,11.13
2022-10-31T14:25:42.365Z,9.67
2022-10-31T14:28:22.514Z,9.87
2022-10-31T14:30:54.683Z,9.50
2022-10-31T14:33:24.207Z,12.83
2022-10-31T14:35:59.275Z,12.97
2022-10-31T14:38:42.829Z,16.37
2022-10-31T14:41:43.231Z,13.50
2022-10-31T14:44:47.900Z,14.20
2022-10-31T14:47:25.817Z,13.77
2022-10-31T14:50:11.531Z,15.38
2022-10-31T14:52:40.373Z,13.02
2022-10-31T14:55:15.434Z,17.17
2022-10-31T14:57:49.705Z,15.82
2022-10-31T15:00:20.926Z,13.43
2022-10-31T15:03:01.987Z,13.03
2022-10-31T15:05:31.358Z,18.60
2022-10-31T15:08:00.274Z,14.63
2022-10-31T15:10:32.960Z,15.43
2022-10-31T15:13:10.991Z,13.30
2022-10-31T15:15:39.688Z,18.07
2022-10-31T15:18:07.739Z,16.97
2022-10-31T15:20:40.335Z,16.63
2022-10-31T15:23:11.363Z,17.53
2022-10-31T15:25:40.373Z,23.00
2022-10-31T15:28:16.219Z,18.00
2022-10-31T15:30:52.351Z,21.20
2022-10-31T15:33:25.805Z,20.47
2022-10-31T15:35:57.317Z,26.57
2022-10-31T15:38:26.077Z,22.63
2022-10-31T15:40:58.886Z,23.40
2022-10-31T15:43:27.066Z,23.67
2022-10-31T15:45:54.818Z,24.00
2022-10-31T15:48:25.892Z,24.73
2022-10-31T15:50:58.392Z,26.23
2022-10-31T15:53:28.446Z,27.80
2022-10-31T15:55:59.659Z,27.63
2022-10-31T15:58:29.268Z,32.60
2022-10-31T16:01:01.879Z,29.93
2022-10-31T16:03:31.835Z,31.57
2022-10-31T16:06:01.356Z,30.10
2022-10-31T16:08:35.486Z,31.77
2022-10-31T16:11:19.461Z,31.43
2022-10-31T16:13:56.662Z,27.17
2022-10-31T16:16:40.463Z,27.50
2022-10-31T16:19:18.043Z,24.63
2022-10-31T16:21:46.633Z,29.23
2022-10-31T16:24:20.281Z,28.27
2022-10-31T16:26:55.015Z,28.30
2022-10-31T16:29:34.645Z,25.87
2022-10-31T16:32:02.682Z,29.37
2022-10-31T16:34:30.289Z,27.67
2022-10-31T16:36:57.843Z,24.07
2022-10-31T16:39:25.456Z,28.70
2022-10-31T16:41:57.948Z,31.77
2022-10-31T16:44:27.477Z,24.43
2022-10-31T16:47:10.945Z,21.73
2022-10-31T16:49:38.697Z,19.43
2022-10-31T16:52:07.565Z,26.53
2022-10-31T16:54:35.152Z,23.20
2022-10-31T16:57:06.174Z,28.87
2022-10-31T16:59:34.841Z,25.00
2022-10-31T17:02:05.147Z,22.23
2022-10-31T17:04:32.921Z,28.73
2022-10-31T17:07:00.580Z,26.60
2022-10-31T17:09:28.174Z,32.53
2022-10-31T17:11:55.980Z,28.90
2022-10-31T17:14:25.011Z,28.60
2022-10-31T17:16:52.616Z,29.37
2022-10-31T17:19:20.446Z,28.90
2022-10-31T17:21:48.041Z,28.03
2022-10-31T17:24:16.651Z,26.23
2022-10-31T17:26:44.287Z,27.63
2022-10-31T17:29:12.054Z,31.27
2022-10-31T17:31:40.987Z,32.80
2022-10-31T17:34:08.689Z,28.47
2022-10-31T17:36:37.402Z,27.30
2022-10-31T17:39:07.524Z,28.20
2022-10-31T17:41:35.241Z,32.00
2022-10-31T17:44:02.824Z,29.53
2022-10-31T17:46:30.439Z,27.67
2022-10-31T17:49:00.796Z,38.90
2022-10-31T17:51:28.617Z,29.80
2022-10-31T17:53:56.208Z,35.53
2022-10-31T17:56:23.802Z,31.80
2022-10-31T17:58:57.986Z,32.90
2022-10-31T18:01:25.737Z,34.43
2022-10-31T18:03:53.429Z,37.27
2022-10-31T18:06:22.338Z,33.67
2022-10-31T18:08:49.896Z,35.30
2022-10-31T18:11:20.406Z,31.93
2022-10-31T18:13:48.057Z,30.73
2022-10-31T18:16:18.808Z,30.37
2022-10-31T18:18:50.468Z,30.37
2022-10-31T18:21:18.132Z,30.03
2022-10-31T18:23:47.752Z,35.20
2022-10-31T18:26:15.349Z,34.90
2022-10-31T18:28:42.953Z,35.63
2022-10-31T18:31:11.191Z,32.33
2022-10-31T18:33:38.827Z,35.87
2022-10-31T18:36:07.606Z,37.17
2022-10-31T18:38:38.086Z,38.50
2022-10-31T18:41:07.129Z,35.43
2022-10-31T18:43:34.731Z,41.17
2022-10-31T18:46:03.427Z,37.07
2022-10-31T18:48:31.478Z,38.20
2022-10-31T18:50:59.148Z,32.60
2022-10-31T18:53:26.729Z,33.67
2022-10-31T18:55:54.320Z,38.53
2022-10-31T18:58:23.356Z,50.73
2022-10-31T19:00:50.987Z,38.40
2022-10-31T19:03:24.895Z,42.23
2022-10-31T19:05:56.160Z,35.07
2022-10-31T19:08:24.122Z,38.47
2022-10-31T19:10:51.756Z,35.13
2022-10-31T19:13:19.345Z,41.73
2022-10-31T19:15:48.734Z,43.27
2022-10-31T19:18:16.388Z,39.93
2022-10-31T19:20:44.039Z,40.27
2022-10-31T19:23:11.599Z,43.57
2022-10-31T19:25:39.352Z,44.47
2022-10-31T19:28:07.094Z,42.93
2022-10-31T19:30:34.683Z,48.60
2022-10-31T19:33:03.604Z,45.47
2022-10-31T19:35:31.151Z,44.43
2022-10-31T19:37:59.137Z,48.27
2022-10-31T19:40:26.948Z,45.23
2022-10-31T19:42:54.509Z,38.50
2022-10-31T19:45:22.388Z,44.60
2022-10-31T19:47:49.973Z,42.77
2022-10-31T19:50:19.085Z,52.60
2022-10-31T19:52:47.538Z,43.63
2022-10-31T19:55:16.090Z,43.87
2022-10-31T20:00:31.535Z,45.43
2022-10-31T20:03:00.752Z,47.07
2022-10-31T20:05:29.911Z,44.53
2022-10-31T20:07:58.082Z,44.97
2022-10-31T20:10:26.139Z,53.20
2022-10-31T20:12:53.699Z,51.03
2022-10-31T20:15:21.348Z,44.43
2022-10-31T20:17:49.352Z,45.27
2022-10-31T20:20:17.350Z,51.63
2022-10-31T20:22:47.229Z,45.40
2022-10-31T20:25:14.878Z,52.57
2022-10-31T20:27:42.514Z,52.43
2022-10-31T20:30:11.063Z,46.33
2022-10-31T20:32:38.914Z,56.10
2022-10-31T20:35:07.226Z,52.10
2022-10-31T20:37:34.799Z,56.93
2022-10-31T20:40:04.083Z,56.20
2022-10-31T20:42:31.656Z,55.60
2022-10-31T20:44:59.482Z,55.60
2022-10-31T20:47:27.268Z,61.93
2022-10-31T20:49:55.008Z,55.30
2022-10-31T20:52:22.584Z,44.37
2022-10-31T20:54:50.163Z,64.90
2022-10-31T20:57:19.100Z,51.30
2022-10-31T20:59:46.658Z,48.23
2022-10-31T21:02:14.385Z,56.70
2022-10-31T21:04:42.134Z,53.63
2022-10-31T21:07:09.748Z,52.30
2022-10-31T21:09:37.449Z,50.33
2022-10-31T21:12:05.733Z,54.13
2022-10-31T21:14:36.570Z,50.70
2022-10-31T21:17:04.649Z,57.73
2022-10-31T21:19:32.214Z,56.33
2022-10-31T21:22:00.012Z,51.70
2022-10-31T21:24:28.723Z,51.80
2022-10-31T21:26:56.479Z,55.30
2022-10-31T21:29:24.337Z,55.83
2022-10-31T21:31:53.331Z,44.83
2022-10-31T21:34:20.958Z,51.53
2022-10-31T21:36:48.511Z,50.53
2022-10-31T21:39:16.253Z,48.23
2022-10-31T21:41:44.380Z,46.60
2022-10-31T21:44:11.995Z,51.97
2022-10-31T21:46:39.961Z,51.93
2022-10-31T21:49:11.291Z,57.73
2022-10-31T21:51:38.912Z,48.03
2022-10-31T21:54:24.266Z,51.70
2022-10-31T21:56:52.084Z,46.50
2022-10-31T21:59:20.142Z,50.03
2022-10-31T22:01:47.914Z,49.27
2022-10-31T22:04:17.362Z,40.90
2022-10-31T22:06:45.277Z,46.53
2022-10-31T22:09:14.607Z,45.20
2022-10-31T22:11:42.770Z,43.03
2022-10-31T22:14:12.856Z,41.17
2022-10-31T22:16:41.121Z,41.30
2022-10-31T22:19:11.725Z,40.80
2022-10-31T22:21:43.555Z,42.83
2022-10-31T22:24:11.809Z,41.73
2022-10-31T22:26:40.250Z,42.27
2022-10-31T22:29:11.824Z,31.20
2022-10-31T22:31:40.874Z,39.20
2022-10-31T22:34:09.021Z,43.77
2022-10-31T22:36:37.747Z,39.43
2022-10-31T22:39:07.668Z,41.23
2022-10-31T22:41:37.044Z,44.37
2022-10-31T22:44:06.064Z,42.53
2022-10-31T22:46:35.583Z,43.70
2022-10-31T22:49:05.146Z,40.50
2022-10-31T22:51:35.048Z,36.60
2022-10-31T22:54:02.984Z,40.67
2022-10-31T22:56:34.546Z,39.00
2022-10-31T22:59:02.971Z,34.67
2022-10-31T23:01:33.127Z,39.30
2022-10-31T23:04:01.875Z,33.27
2022-10-31T23:06:31.686Z,37.07
2022-10-31T23:09:01.370Z,36.43
2022-10-31T23:11:32.266Z,39.13
2022-10-31T23:14:13.898Z,36.07
2022-10-31T23:16:47.091Z,36.73
2022-10-31T23:19:16.840Z,36.40
2022-10-31T23:21:59.582Z,37.47
2022-10-31T23:24:34.051Z,33.33
2022-10-31T23:27:05.389Z,33.67
2022-10-31T23:29:35.026Z,42.47
2022-10-31T23:32:03.255Z,38.90
2022-10-31T23:34:30.839Z,39.67
2022-10-31T23:36:58.678Z,38.10
2022-10-31T23:39:26.442Z,38.10
2022-10-31T23:41:54.017Z,34.10
2022-10-31T23:44:21.609Z,37.37
2022-10-31T23:46:50.539Z,36.63
2022-10-31T23:49:18.240Z,39.70
2022-10-31T23:51:45.832Z,33.70
2022-10-31T23:54:13.446Z,36.00
2022-10-31T23:56:41.072Z,40.73
2022-10-31T23:59:09.038Z,37.97
